Terminal Aerodrome Forecast
Issued by NWS

Home | Current Version | Previous Version | Text Only | Print | Product List | Glossary On
Versions: 1 2 3 4 5 6 7 8 9 10 11 12 13 14 15
338
FTUS44 KTSA 292320
TAFFYV
TAF
KFYV 292320Z 3000/3024 34004KT P6SM BKN150
     FM300200 VRB02KT P6SM SCT050 BKN250
     FM301200 VRB03KT P6SM BKN050 PROB30 3012/3018 5SM -TSRA
      BKN025CB
     FM301800 25006KT P6SM SCT050 BKN250=

USA.gov is the U.S. government's official web portal to all federal, state and local government web resources and services.